Aviation Digital Data Service (ADDS)

Output produced by METARs form (0621 UTC 30 January 2015)
found at http://aviationweather.gov/adds/metars/
 
KBAF 300541Z 3006/3106 17006KT 2SM -SN OVC015 
     FM301400 00000KT 2SM -SN OVC025 
     FM301700 33005KT P6SM OVC020 
     FM302000 32010G19KT P6SM OVC020 
     FM302100 32011G24KT P6SM OVC045